createdAt,value
2022-10-01T00:00:55.322Z,7.63
2022-10-01T00:03:24.287Z,13.05
2022-10-01T00:06:12.173Z,14.40
2022-10-01T00:08:41.381Z,8.82
2022-10-01T00:11:14.132Z,13.07
2022-10-01T00:13:46.129Z,7.82
2022-10-01T00:16:15.480Z,10.60
2022-10-01T00:18:45.670Z,8.82
2022-10-01T00:21:15.198Z,7.55
2022-10-01T00:23:42.386Z,6.63
2022-10-01T00:26:09.689Z,6.80
2022-10-01T00:28:36.117Z,7.78
2022-10-01T00:31:02.742Z,8.93
2022-10-01T00:33:29.193Z,8.52
2022-10-01T00:35:56.935Z,10.35
2022-10-01T00:38:24.089Z,9.38
2022-10-01T00:40:51.163Z,11.55
2022-10-01T00:43:25.837Z,7.57
2022-10-01T00:45:57.438Z,8.07
2022-10-01T00:48:25.798Z,10.18
2022-10-01T00:50:52.886Z,10.85
2022-10-01T00:53:21.837Z,8.75
2022-10-01T00:55:55.147Z,11.68
2022-10-01T00:58:23.502Z,7.25
2022-10-01T01:00:53.870Z,9.27
2022-10-01T01:03:20.329Z,7.07
2022-10-01T01:05:50.082Z,5.22
2022-10-01T01:08:17.568Z,5.95
2022-10-01T01:10:54.469Z,6.15
2022-10-01T01:13:29.163Z,9.07
2022-10-01T01:15:59.658Z,6.85
2022-10-01T01:18:33.240Z,5.90
2022-10-01T01:21:21.674Z,5.82
2022-10-01T01:24:33.595Z,5.93
2022-10-01T01:27:08.722Z,6.47
2022-10-01T01:29:46.032Z,4.65
2022-10-01T01:32:19.177Z,5.63
2022-10-01T01:34:50.992Z,6.20
2022-10-01T01:37:22.473Z,6.90
2022-10-01T01:39:52.754Z,11.52
2022-10-01T01:42:31.146Z,7.85
2022-10-01T01:45:01.295Z,7.28
2022-10-01T01:47:30.448Z,6.82
2022-10-01T01:49:58.469Z,7.05
2022-10-01T01:52:25.669Z,7.88
2022-10-01T01:54:52.199Z,7.88
2022-10-01T01:57:20.106Z,7.13
2022-10-01T01:59:47.085Z,6.75
2022-10-01T02:02:20.019Z,6.68
2022-10-01T02:04:54.705Z,4.85
2022-10-01T02:07:33.212Z,8.80
2022-10-01T02:10:21.901Z,10.48
2022-10-01T02:13:18.022Z,12.60
2022-10-01T02:16:38.911Z,14.95
2022-10-01T02:19:16.465Z,11.15
2022-10-01T02:22:08.933Z,8.77
2022-10-01T02:24:56.871Z,9.18
2022-10-01T02:27:33.348Z,10.32
2022-10-01T02:30:05.097Z,10.10
2022-10-01T02:32:32.710Z,5.88
2022-10-01T02:35:01.549Z,8.25
2022-10-01T02:37:28.683Z,10.18
2022-10-01T02:39:57.319Z,6.90
2022-10-01T02:42:29.036Z,5.40
2022-10-01T02:45:01.301Z,8.95
2022-10-01T02:47:40.703Z,6.93
2022-10-01T02:50:08.684Z,11.38
2022-10-01T02:52:55.537Z,7.80
2022-10-01T02:55:33.301Z,7.03
2022-10-01T02:57:59.675Z,4.43
2022-10-01T03:00:27.018Z,13.05
2022-10-01T03:02:53.718Z,6.65
2022-10-01T03:05:20.695Z,9.50
2022-10-01T03:07:47.897Z,5.68
2022-10-01T03:10:16.148Z,6.25
2022-10-01T03:12:45.230Z,8.50
2022-10-01T03:15:13.096Z,6.63
2022-10-01T03:17:39.742Z,8.45
2022-10-01T03:20:07.176Z,7.22
2022-10-01T03:22:33.609Z,6.47
2022-10-01T03:25:00.243Z,5.72
2022-10-01T03:27:26.792Z,6.28
2022-10-01T03:29:53.393Z,10.90
2022-10-01T03:32:20.305Z,5.82
2022-10-01T03:34:48.090Z,6.40
2022-10-01T03:37:14.521Z,6.95
2022-10-01T03:39:41.048Z,6.40
2022-10-01T03:42:07.504Z,8.85
2022-10-01T03:44:34.074Z,12.68
2022-10-01T03:47:00.503Z,9.95
2022-10-01T03:49:27.817Z,5.90
2022-10-01T03:51:54.352Z,9.00
2022-10-01T03:54:22.310Z,9.02
2022-10-01T03:56:48.968Z,7.10
2022-10-01T03:59:15.485Z,6.18
2022-10-01T04:01:41.911Z,7.00
2022-10-01T04:04:08.589Z,9.82
2022-10-01T04:06:34.962Z,4.82
2022-10-01T04:09:02.698Z,6.32
2022-10-01T04:11:29.130Z,6.78
2022-10-01T04:13:57.854Z,7.93
2022-10-01T04:16:25.397Z,5.00
2022-10-01T04:18:52.121Z,6.18
2022-10-01T04:21:19.361Z,4.95
2022-10-01T04:23:46.021Z,6.13
2022-10-01T04:26:15.760Z,6.00
2022-10-01T04:28:45.061Z,5.78
2022-10-01T04:31:26.821Z,5.30
2022-10-01T04:33:55.720Z,4.47
2022-10-01T04:36:23.730Z,5.80
2022-10-01T04:38:58.051Z,8.95
2022-10-01T04:41:30.190Z,4.35
2022-10-01T04:43:57.393Z,5.13
2022-10-01T04:46:23.870Z,6.00
2022-10-01T04:48:50.399Z,4.60
2022-10-01T04:51:17.601Z,3.40
2022-10-01T04:53:45.135Z,3.08
2022-10-01T04:56:11.609Z,4.45
2022-10-01T04:58:38.467Z,4.22
2022-10-01T05:01:04.919Z,3.60
2022-10-01T05:03:31.601Z,5.38
2022-10-01T05:05:58.089Z,3.90
2022-10-01T05:08:24.581Z,4.05
2022-10-01T05:10:51.002Z,4.60
2022-10-01T05:13:17.433Z,3.40
2022-10-01T05:15:44.741Z,4.13
2022-10-01T05:18:11.242Z,3.92
2022-10-01T05:20:38.357Z,4.30
2022-10-01T05:23:04.881Z,4.50
2022-10-01T05:25:31.576Z,3.47
2022-10-01T05:28:05.724Z,2.45
2022-10-01T05:30:33.569Z,3.20
2022-10-01T05:33:02.121Z,1.85
2022-10-01T05:35:29.709Z,2.75
2022-10-01T05:37:58.234Z,1.67
2022-10-01T05:40:27.509Z,2.55
2022-10-01T05:42:56.203Z,2.40
2022-10-01T05:45:23.557Z,2.67
2022-10-01T05:48:01.454Z,4.30
2022-10-01T05:50:31.274Z,4.40
2022-10-01T05:52:59.290Z,1.10
2022-10-01T05:55:26.908Z,4.63
2022-10-01T05:58:01.547Z,2.20
2022-10-01T06:00:29.117Z,3.42
2022-10-01T06:02:57.990Z,1.50
2022-10-01T06:05:25.348Z,2.30
2022-10-01T06:07:53.418Z,2.92
2022-10-01T06:10:21.152Z,3.03
2022-10-01T06:12:48.508Z,1.77
2022-10-01T06:15:17.338Z,2.72
2022-10-01T06:17:45.138Z,4.60
2022-10-01T06:20:13.663Z,1.20
2022-10-01T06:22:41.003Z,2.58
2022-10-01T06:25:10.891Z,2.80
2022-10-01T06:27:37.322Z,2.80
2022-10-01T06:30:05.443Z,2.72
2022-10-01T06:32:34.902Z,1.52
2022-10-01T06:35:02.589Z,1.85
2022-10-01T06:37:29.270Z,2.15
2022-10-01T06:39:55.787Z,1.27
2022-10-01T06:42:22.399Z,1.83
2022-10-01T06:44:49.002Z,1.30
2022-10-01T06:47:15.413Z,1.70
2022-10-01T06:49:45.540Z,1.58
2022-10-01T06:52:37.371Z,2.08
2022-10-01T06:55:04.182Z,4.43
2022-10-01T06:57:30.888Z,2.58
2022-10-01T06:59:57.924Z,2.00
2022-10-01T07:02:30.130Z,1.33
2022-10-01T07:04:59.014Z,1.33
2022-10-01T07:07:33.038Z,1.30
2022-10-01T07:09:59.680Z,1.42
2022-10-01T07:12:26.499Z,0.93
2022-10-01T07:14:53.955Z,2.20
2022-10-01T07:17:21.351Z,2.00
2022-10-01T07:19:47.992Z,0.95
2022-10-01T07:22:14.427Z,1.88
2022-10-01T07:24:40.936Z,1.65
2022-10-01T07:27:07.697Z,3.33
2022-10-01T07:29:34.608Z,1.80
2022-10-01T07:32:02.093Z,4.78
2022-10-01T07:34:30.983Z,3.20
2022-10-01T07:36:57.383Z,7.25
2022-10-01T07:39:24.236Z,5.20
2022-10-01T07:41:51.450Z,2.60
2022-10-01T07:44:19.245Z,2.70
2022-10-01T07:46:46.342Z,1.55
2022-10-01T07:49:13.287Z,4.80
2022-10-01T07:51:39.681Z,12.18
2022-10-01T07:54:06.172Z,2.22
2022-10-01T07:56:32.525Z,1.42
2022-10-01T07:58:59.517Z,1.23
2022-10-01T08:01:26.018Z,1.10
2022-10-01T08:03:53.136Z,1.23
2022-10-01T08:06:25.562Z,0.98
2022-10-01T08:08:52.368Z,0.80
2022-10-01T08:11:18.794Z,1.33
2022-10-01T08:13:45.740Z,0.60
2022-10-01T08:16:13.001Z,0.77
2022-10-01T08:18:43.535Z,0.70
2022-10-01T08:21:10.309Z,0.60
2022-10-01T08:23:36.876Z,2.92
2022-10-01T08:26:07.718Z,1.25
2022-10-01T08:28:35.266Z,2.75
2022-10-01T08:31:09.962Z,1.33
2022-10-01T08:33:38.030Z,9.05
2022-10-01T08:36:09.454Z,4.88
2022-10-01T08:38:36.891Z,3.22
2022-10-01T08:41:24.588Z,3.08
2022-10-01T08:43:52.974Z,3.90
2022-10-01T08:46:23.559Z,2.35
2022-10-01T08:48:58.775Z,1.77
2022-10-01T08:54:07.529Z,2.67
2022-10-01T08:56:44.308Z,1.93
2022-10-01T08:59:36.092Z,1.63
2022-10-01T09:02:02.768Z,3.30
2022-10-01T09:04:29.309Z,0.82
2022-10-01T09:07:20.913Z,1.33
2022-10-01T09:10:01.219Z,1.45
2022-10-01T09:12:36.644Z,5.57
2022-10-01T09:15:21.014Z,2.28
2022-10-01T09:18:06.752Z,2.05
2022-10-01T09:20:45.262Z,1.90
2022-10-01T09:23:26.669Z,0.75
2022-10-01T09:25:53.199Z,0.90
2022-10-01T09:28:34.782Z,3.05
2022-10-01T09:31:18.533Z,3.50
2022-10-01T09:34:13.168Z,0.57
2022-10-01T09:37:08.227Z,1.42
2022-10-01T09:39:53.201Z,1.30
2022-10-01T09:42:23.845Z,1.17
2022-10-01T09:44:50.494Z,1.13
2022-10-01T09:47:20.214Z,2.80
2022-10-01T09:49:49.453Z,0.90
2022-10-01T09:52:31.544Z,1.58
2022-10-01T09:55:23.042Z,1.02
2022-10-01T09:58:01.368Z,0.63
2022-10-01T10:00:28.106Z,0.40
2022-10-01T10:02:56.289Z,2.78
2022-10-01T10:05:29.268Z,0.77
2022-10-01T10:08:11.000Z,1.27
2022-10-01T10:10:40.042Z,2.63
2022-10-01T10:13:10.654Z,0.98
2022-10-01T10:15:57.493Z,0.38
2022-10-01T10:18:38.465Z,1.10
2022-10-01T10:21:12.022Z,0.60
2022-10-01T10:23:53.548Z,2.13
2022-10-01T10:26:43.435Z,0.98
2022-10-01T10:29:26.754Z,1.27
2022-10-01T10:31:55.455Z,2.88
2022-10-01T10:34:38.308Z,0.52
2022-10-01T10:37:13.764Z,4.13
2022-10-01T10:39:43.150Z,1.38
2022-10-01T10:42:18.714Z,1.50
2022-10-01T10:44:49.270Z,2.55
2022-10-01T10:47:18.282Z,5.28
2022-10-01T10:49:47.767Z,4.00
2022-10-01T10:52:29.950Z,4.13
2022-10-01T10:54:59.033Z,1.42
2022-10-01T10:57:34.231Z,8.98
2022-10-01T11:02:30.852Z,3.78
2022-10-01T11:05:02.121Z,3.80
2022-10-01T11:07:29.859Z,4.20
2022-10-01T11:10:15.035Z,5.10
2022-10-01T11:13:18.192Z,10.15
2022-10-01T11:15:45.335Z,7.35
2022-10-01T11:18:26.495Z,4.72
2022-10-01T11:21:11.276Z,9.45
2022-10-01T11:23:53.637Z,6.72
2022-10-01T11:26:45.216Z,7.80
2022-10-01T11:29:42.618Z,6.35
2022-10-01T11:32:36.967Z,5.07
2022-10-01T11:35:26.087Z,2.80
2022-10-01T11:38:00.668Z,10.98
2022-10-01T11:40:39.909Z,8.05
2022-10-01T11:43:22.434Z,8.40
2022-10-01T11:45:56.283Z,6.38
2022-10-01T11:48:31.461Z,9.48
2022-10-01T11:51:05.455Z,9.00
2022-10-01T11:53:38.179Z,4.88
2022-10-01T11:56:36.073Z,4.10
2022-10-01T11:59:09.738Z,6.00
2022-10-01T12:02:11.179Z,5.22
2022-10-01T12:04:50.597Z,6.32
2022-10-01T12:07:26.735Z,7.05
2022-10-01T12:10:12.104Z,6.90
2022-10-01T12:12:46.375Z,7.25
2022-10-01T12:15:26.786Z,4.05
2022-10-01T12:18:00.707Z,7.30
2022-10-01T12:20:34.421Z,9.00
2022-10-01T12:23:04.098Z,9.55
2022-10-01T12:26:05.711Z,7.22
2022-10-01T12:28:52.070Z,8.75
2022-10-01T12:31:36.316Z,7.57
2022-10-01T12:34:08.794Z,3.80
2022-10-01T12:36:45.576Z,5.03
2022-10-01T12:39:35.611Z,7.22
2022-10-01T12:42:21.249Z,4.85
2022-10-01T12:44:50.550Z,8.93
2022-10-01T12:47:50.868Z,5.30
2022-10-01T12:50:26.464Z,5.72
2022-10-01T12:53:29.470Z,7.20
2022-10-01T12:56:33.476Z,7.03
2022-10-01T12:59:24.548Z,9.23
2022-10-01T13:02:02.871Z,6.05
2022-10-01T13:04:56.541Z,7.68
2022-10-01T13:07:40.345Z,6.32
2022-10-01T13:10:18.480Z,10.52
2022-10-01T13:13:16.914Z,9.02
2022-10-01T13:15:49.504Z,5.18
2022-10-01T13:18:18.984Z,7.38
2022-10-01T13:21:02.210Z,10.07
2022-10-01T13:23:39.982Z,8.38
2022-10-01T13:26:12.414Z,7.18
2022-10-01T13:29:06.114Z,4.57
2022-10-01T13:31:59.418Z,6.03
2022-10-01T13:34:37.458Z,6.20
2022-10-01T13:37:11.564Z,6.43
2022-10-01T13:39:42.006Z,11.35
2022-10-01T13:42:20.218Z,7.07
2022-10-01T13:44:53.097Z,7.55
2022-10-01T13:47:21.178Z,4.95
2022-10-01T13:50:07.356Z,7.40
2022-10-01T13:52:34.682Z,6.57
2022-10-01T13:55:02.261Z,6.93
2022-10-01T13:57:37.162Z,9.60
2022-10-01T14:00:12.494Z,17.60
2022-10-01T14:02:42.209Z,8.15
2022-10-01T14:05:17.881Z,5.93
2022-10-01T14:07:48.634Z,5.18
2022-10-01T14:10:16.366Z,7.70
2022-10-01T14:13:05.126Z,7.45
2022-10-01T14:15:59.914Z,7.20
2022-10-01T14:18:34.706Z,4.63
2022-10-01T14:21:22.800Z,8.02
2022-10-01T14:24:05.205Z,4.45
2022-10-01T14:26:54.519Z,6.55
2022-10-01T14:29:45.389Z,7.10
2022-10-01T14:32:43.017Z,3.50
2022-10-01T14:35:33.058Z,2.92
2022-10-01T14:38:01.464Z,7.55
2022-10-01T14:40:37.839Z,1.63
2022-10-01T14:43:16.637Z,8.05
2022-10-01T14:45:50.367Z,12.85
2022-10-01T14:48:16.906Z,5.28
2022-10-01T14:50:49.373Z,4.78
2022-10-01T14:53:18.387Z,3.33
2022-10-01T14:55:50.017Z,3.47
2022-10-01T14:58:26.315Z,5.28
2022-10-01T15:00:54.924Z,4.90
2022-10-01T15:03:21.618Z,5.35
2022-10-01T15:05:49.503Z,5.68
2022-10-01T15:08:20.309Z,4.80
2022-10-01T15:11:03.833Z,3.85
2022-10-01T15:13:36.091Z,8.10
2022-10-01T15:16:02.969Z,6.15
2022-10-01T15:18:30.539Z,8.45
2022-10-01T15:21:06.975Z,4.60
2022-10-01T15:23:38.815Z,5.00
2022-10-01T15:26:09.172Z,7.70
2022-10-01T15:28:36.656Z,6.53
2022-10-01T15:31:06.598Z,5.30
2022-10-01T15:33:36.225Z,6.65
2022-10-01T15:36:05.059Z,62.20
2022-10-01T15:38:32.898Z,15.20
2022-10-01T15:41:26.814Z,11.85
2022-10-01T15:43:49.557Z,9.25
2022-10-01T15:46:29.166Z,5.80
2022-10-01T15:49:17.514Z,4.13
2022-10-01T15:52:11.809Z,8.18
2022-10-01T15:54:41.796Z,7.60
2022-10-01T15:57:14.732Z,9.48
2022-10-01T15:59:41.465Z,8.02
2022-10-01T16:02:19.807Z,5.68
2022-10-01T16:04:47.357Z,9.52
2022-10-01T16:07:29.937Z,6.15
2022-10-01T16:09:59.196Z,5.57
2022-10-01T16:12:29.193Z,10.57
2022-10-01T16:15:01.457Z,9.23
2022-10-01T16:17:29.826Z,8.38
2022-10-01T16:20:22.081Z,8.23
2022-10-01T16:22:48.742Z,9.40
2022-10-01T16:25:19.423Z,7.22
2022-10-01T16:27:54.980Z,11.05
2022-10-01T16:30:25.536Z,5.50
2022-10-01T16:32:52.068Z,6.43
2022-10-01T16:35:29.313Z,6.18
2022-10-01T16:37:57.870Z,6.28
2022-10-01T16:40:27.025Z,8.80
2022-10-01T16:42:54.093Z,6.05
2022-10-01T16:45:24.526Z,8.00
2022-10-01T16:47:52.348Z,12.07
2022-10-01T16:50:21.513Z,5.95
2022-10-01T16:52:51.792Z,9.15
2022-10-01T16:55:32.410Z,6.88
2022-10-01T16:57:58.805Z,11.93
2022-10-01T17:00:26.418Z,11.27
2022-10-01T17:02:56.870Z,10.57
2022-10-01T17:05:29.338Z,10.55
2022-10-01T17:07:59.269Z,8.68
2022-10-01T17:10:25.792Z,5.25
2022-10-01T17:12:52.440Z,7.05
2022-10-01T17:15:23.226Z,9.15
2022-10-01T17:17:49.712Z,11.32
2022-10-01T17:20:16.630Z,10.70
2022-10-01T17:22:43.471Z,7.57
2022-10-01T17:25:22.322Z,6.90
2022-10-01T17:27:48.874Z,6.50
2022-10-01T17:30:15.881Z,8.13
2022-10-01T17:32:43.365Z,11.93
2022-10-01T17:35:14.711Z,7.97
2022-10-01T17:37:41.829Z,14.23
2022-10-01T17:40:10.063Z,17.75
2022-10-01T17:42:36.690Z,11.82
2022-10-01T17:45:06.680Z,13.48
2022-10-01T17:47:33.716Z,15.43
2022-10-01T17:50:00.351Z,11.07
2022-10-01T17:52:27.977Z,15.52
2022-10-01T17:54:54.425Z,18.30
2022-10-01T17:57:21.393Z,17.80
2022-10-01T17:59:47.785Z,16.15
2022-10-01T18:02:39.786Z,10.57
2022-10-01T18:05:03.316Z,10.32
2022-10-01T18:07:29.921Z,8.95
2022-10-01T18:09:56.321Z,18.33
2022-10-01T18:12:22.867Z,10.90
2022-10-01T18:14:49.812Z,14.73
2022-10-01T18:17:16.374Z,12.57
2022-10-01T18:19:58.118Z,11.65
2022-10-01T18:22:24.960Z,7.97
2022-10-01T18:24:51.504Z,6.15
2022-10-01T18:27:18.503Z,8.20
2022-10-01T18:29:44.958Z,7.50
2022-10-01T18:32:21.637Z,12.57
2022-10-01T18:35:00.226Z,14.88
2022-10-01T18:37:40.063Z,14.23
2022-10-01T18:40:09.983Z,25.65
2022-10-01T18:42:54.611Z,16.70
2022-10-01T18:45:47.573Z,25.50
2022-10-01T18:48:44.592Z,22.65
2022-10-01T18:51:30.752Z,23.85
2022-10-01T18:54:34.405Z,14.68
2022-10-01T18:57:12.871Z,16.92
2022-10-01T18:59:46.561Z,27.33
2022-10-01T19:02:34.140Z,26.88
2022-10-01T19:05:15.784Z,21.70
2022-10-01T19:08:23.436Z,15.93
2022-10-01T19:11:01.774Z,13.30
2022-10-01T19:13:40.522Z,8.13
2022-10-01T19:16:34.895Z,10.48
2022-10-01T19:19:30.868Z,14.25
2022-10-01T19:22:17.953Z,9.43
2022-10-01T19:24:47.545Z,7.47
2022-10-01T19:27:32.674Z,10.88
2022-10-01T19:30:22.616Z,7.45
2022-10-01T19:32:48.991Z,8.55
2022-10-01T19:35:22.677Z,8.93
2022-10-01T19:37:58.182Z,7.50
2022-10-01T19:40:27.543Z,12.25
2022-10-01T19:43:24.735Z,7.88
2022-10-01T19:46:21.275Z,5.35
2022-10-01T19:48:57.973Z,8.95
2022-10-01T19:51:33.887Z,20.88
2022-10-01T19:54:01.537Z,17.42
2022-10-01T19:56:31.055Z,16.50
2022-10-01T19:59:04.681Z,13.35
2022-10-01T20:01:38.562Z,14.38
2022-10-01T20:04:14.577Z,7.13
2022-10-01T20:06:46.806Z,7.47
2022-10-01T20:09:16.346Z,8.65
2022-10-01T20:12:05.291Z,14.30
2022-10-01T20:14:53.260Z,8.38
2022-10-01T20:17:39.421Z,13.82
2022-10-01T20:20:24.397Z,7.95
2022-10-01T20:23:06.107Z,10.07
2022-10-01T20:26:11.058Z,5.82
2022-10-01T20:28:56.497Z,10.80
2022-10-01T20:31:39.535Z,8.77
2022-10-01T20:34:12.117Z,8.98
2022-10-01T20:36:42.334Z,18.27
2022-10-01T20:39:18.362Z,7.40
2022-10-01T20:41:53.162Z,8.75
2022-10-01T20:44:24.815Z,12.68
2022-10-01T20:46:55.943Z,15.15
2022-10-01T20:49:29.804Z,10.00
2022-10-01T20:52:05.455Z,10.90
2022-10-01T20:54:46.492Z,9.15
2022-10-01T20:57:25.686Z,8.23
2022-10-01T20:59:55.320Z,10.35
2022-10-01T21:02:24.976Z,10.82
2022-10-01T21:04:56.352Z,8.30
2022-10-01T21:07:31.720Z,10.57
2022-10-01T21:10:01.183Z,11.63
2022-10-01T21:12:41.924Z,10.07
2022-10-01T21:15:13.731Z,9.75
2022-10-01T21:17:49.326Z,6.97
2022-10-01T21:20:44.338Z,10.52
2022-10-01T21:23:23.841Z,10.00
2022-10-01T21:26:12.096Z,13.02
2022-10-01T21:29:17.056Z,13.00
2022-10-01T21:32:07.527Z,8.45
2022-10-01T21:34:51.120Z,6.10
2022-10-01T21:37:41.333Z,5.47
2022-10-01T21:40:27.958Z,7.55
2022-10-01T21:43:09.814Z,9.48
2022-10-01T21:45:51.488Z,11.20
2022-10-01T21:48:43.386Z,13.25
2022-10-01T21:51:17.309Z,10.90
2022-10-01T21:53:46.896Z,9.07
2022-10-01T21:56:38.391Z,6.47
2022-10-01T21:59:21.079Z,9.50
2022-10-01T22:02:03.603Z,6.07
2022-10-01T22:04:39.161Z,7.10
2022-10-01T22:07:12.792Z,7.88
2022-10-01T22:09:56.541Z,10.02
2022-10-01T22:12:27.966Z,8.75
2022-10-01T22:14:55.759Z,9.55
2022-10-01T22:17:27.559Z,11.65
2022-10-01T22:19:58.664Z,9.68
2022-10-01T22:22:30.473Z,8.40
2022-10-01T22:25:01.867Z,10.80
2022-10-01T22:27:44.134Z,10.70
2022-10-01T22:30:15.503Z,8.50
2022-10-01T22:33:10.870Z,10.43
2022-10-01T22:35:52.750Z,4.45
2022-10-01T22:38:45.526Z,11.73
2022-10-01T22:41:16.914Z,6.82
2022-10-01T22:43:45.603Z,11.07
2022-10-01T22:46:30.281Z,4.38
2022-10-01T22:49:15.056Z,6.37
2022-10-01T22:52:13.864Z,10.27
2022-10-01T22:55:21.202Z,9.82
2022-10-01T22:57:56.301Z,10.80
2022-10-01T23:00:23.208Z,10.82
2022-10-01T23:03:24.941Z,5.15
2022-10-01T23:06:03.495Z,10.73
2022-10-01T23:08:41.722Z,5.05
2022-10-01T23:11:24.312Z,8.43
2022-10-01T23:13:54.514Z,5.00
2022-10-01T23:16:39.925Z,7.90
2022-10-01T23:21:49.225Z,11.55
2022-10-01T23:24:52.399Z,6.15
2022-10-01T23:27:24.741Z,14.43
2022-10-01T23:30:11.941Z,19.23
2022-10-01T23:32:50.684Z,14.38
2022-10-01T23:35:21.373Z,10.65
2022-10-01T23:38:24.808Z,13.38
2022-10-01T23:40:55.617Z,8.82
2022-10-01T23:43:28.483Z,10.25
2022-10-01T23:45:59.239Z,9.75
2022-10-01T23:48:35.784Z,14.38
2022-10-01T23:51:21.525Z,11.40
2022-10-01T23:53:57.551Z,11.85
2022-10-01T23:56:51.162Z,8.60
2022-10-01T23:59:23.506Z,14.23
